createdAt,value
2023-02-15T00:01:09.696Z,96349.09
2023-02-15T00:03:36.372Z,96343.34
2023-02-15T00:06:03.679Z,96349.53
2023-02-15T00:08:33.283Z,96349.63
2023-02-15T00:11:06.705Z,96344.03
2023-02-15T00:13:35.789Z,96347.16
2023-02-15T00:16:07.289Z,96343.91
2023-02-15T00:18:34.222Z,96341.91
2023-02-15T00:21:07.950Z,96328.41
2023-02-15T00:23:34.859Z,96337.97
2023-02-15T00:26:10.425Z,96331.50
2023-02-15T00:28:37.233Z,96328.22
2023-02-15T00:31:13.681Z,96320.66
2023-02-15T00:33:41.268Z,96325.94
2023-02-15T00:36:09.024Z,96316.91
2023-02-15T00:38:38.301Z,96323.94
2023-02-15T00:41:06.619Z,96319.66
2023-02-15T00:43:34.280Z,96317.88
2023-02-15T00:46:01.384Z,96321.06
2023-02-15T00:48:31.572Z,96316.09
2023-02-15T00:50:59.680Z,96311.75
2023-02-15T00:53:27.150Z,96314.25
2023-02-15T00:55:54.062Z,96316.41
2023-02-15T00:58:20.739Z,96305.25
2023-02-15T01:00:48.269Z,96319.06
2023-02-15T01:03:16.563Z,96310.84
2023-02-15T01:05:43.454Z,96312.19
2023-02-15T01:08:09.952Z,96316.97
2023-02-15T01:10:37.400Z,96317.22
2023-02-15T01:13:04.092Z,96317.22
2023-02-15T01:15:30.599Z,96321.69
2023-02-15T01:17:57.129Z,96305.78
2023-02-15T01:20:28.405Z,96315.25
2023-02-15T01:22:55.781Z,96312.91
2023-02-15T01:25:24.066Z,96317.88
2023-02-15T01:27:50.743Z,96320.31
2023-02-15T01:30:17.874Z,96317.31
2023-02-15T01:32:44.560Z,96315.00
2023-02-15T01:35:11.580Z,96314.00
2023-02-15T01:37:38.267Z,96320.59
2023-02-15T01:40:07.546Z,96320.94
2023-02-15T01:42:34.174Z,96313.25
2023-02-15T01:45:23.315Z,96320.34
2023-02-15T01:47:57.355Z,96314.13
2023-02-15T01:50:33.377Z,96313.13
2023-02-15T01:53:04.423Z,96314.59
2023-02-15T01:55:35.502Z,96310.22
2023-02-15T01:58:02.253Z,96309.69
2023-02-15T02:00:29.669Z,96305.97
2023-02-15T02:02:57.132Z,96310.28
2023-02-15T02:05:23.690Z,96310.06
2023-02-15T02:07:56.027Z,96305.81
2023-02-15T02:10:24.043Z,96301.56
2023-02-15T02:12:54.175Z,96298.38
2023-02-15T02:15:24.838Z,96293.03
2023-02-15T02:18:13.261Z,96295.09
2023-02-15T02:20:48.728Z,96282.72
2023-02-15T02:23:50.393Z,96285.41
2023-02-15T02:26:39.838Z,96285.75
2023-02-15T02:29:33.774Z,96276.38
2023-02-15T02:32:24.945Z,96282.31
2023-02-15T02:35:20.424Z,96280.97
2023-02-15T02:38:00.872Z,96276.94
2023-02-15T02:40:53.967Z,96280.22
2023-02-15T02:43:34.320Z,96284.94
2023-02-15T02:46:12.434Z,96282.25
2023-02-15T02:48:39.523Z,96284.38
2023-02-15T02:51:06.059Z,96280.75
2023-02-15T02:53:33.729Z,96285.13
2023-02-15T02:56:06.201Z,96279.16
2023-02-15T02:58:45.140Z,96279.16
2023-02-15T03:01:19.642Z,96276.28
2023-02-15T03:03:52.676Z,96275.66
2023-02-15T03:06:26.898Z,96274.88
2023-02-15T03:08:59.647Z,96273.78
2023-02-15T03:11:26.445Z,96269.97
2023-02-15T03:13:53.082Z,96268.34
2023-02-15T03:16:20.852Z,96267.31
2023-02-15T03:18:49.884Z,96270.72
2023-02-15T03:21:16.446Z,96277.19
2023-02-15T03:23:42.934Z,96276.91
2023-02-15T03:26:09.500Z,96273.97
2023-02-15T03:28:44.434Z,96272.94
2023-02-15T03:31:13.437Z,96262.28
2023-02-15T03:33:45.341Z,96272.75
2023-02-15T03:36:30.415Z,96266.25
2023-02-15T03:39:11.578Z,96269.47
2023-02-15T03:42:06.719Z,96263.94
2023-02-15T03:44:38.553Z,96270.53
2023-02-15T03:47:15.194Z,96276.59
2023-02-15T03:50:03.078Z,96276.31
2023-02-15T03:52:31.290Z,96274.75
2023-02-15T03:54:58.130Z,96276.06
2023-02-15T03:57:27.440Z,96275.53
2023-02-15T03:59:57.107Z,96277.09
2023-02-15T04:02:25.849Z,96274.94
2023-02-15T04:04:52.340Z,96281.53
2023-02-15T04:07:18.839Z,96286.44
2023-02-15T04:09:45.646Z,96286.16
2023-02-15T04:12:12.683Z,96280.75
2023-02-15T04:14:56.103Z,96278.66
2023-02-15T04:17:22.637Z,96276.53
2023-02-15T04:19:49.130Z,96279.66
2023-02-15T04:22:15.603Z,96278.66
2023-02-15T04:24:42.067Z,96286.09
2023-02-15T04:27:08.690Z,96282.19
2023-02-15T04:29:35.202Z,96291.75
2023-02-15T04:32:02.330Z,96292.03
2023-02-15T04:34:29.465Z,96292.13
2023-02-15T04:36:56.076Z,96293.81
2023-02-15T04:39:22.575Z,96298.06
2023-02-15T04:41:49.624Z,96285.69
2023-02-15T04:44:16.394Z,96278.19
2023-02-15T04:46:42.928Z,96287.03
2023-02-15T04:49:09.907Z,96279.28
2023-02-15T04:51:36.506Z,96275.88
2023-02-15T04:54:03.053Z,96283.47
2023-02-15T04:56:29.600Z,96278.84
2023-02-15T04:58:56.306Z,96285.94
2023-02-15T05:01:22.860Z,96287.47
2023-02-15T05:03:49.351Z,96279.78
2023-02-15T05:06:15.843Z,96279.97
2023-02-15T05:08:42.346Z,96282.44
2023-02-15T05:11:08.828Z,96280.88
2023-02-15T05:13:35.706Z,96280.44
2023-02-15T05:16:02.475Z,96280.19
2023-02-15T05:18:29.240Z,96282.25
2023-02-15T05:20:55.990Z,96279.66
2023-02-15T05:23:22.560Z,96274.41
2023-02-15T05:25:50.123Z,96266.47
2023-02-15T05:28:16.668Z,96269.25
2023-02-15T05:30:43.320Z,96261.06
2023-02-15T05:33:10.020Z,96258.94
2023-02-15T05:35:36.522Z,96266.38
2023-02-15T05:38:03.041Z,96267.31
2023-02-15T05:40:29.757Z,96276.47
2023-02-15T05:42:57.506Z,96276.09
2023-02-15T05:45:24.418Z,96275.88
2023-02-15T05:47:51.012Z,96278.91
2023-02-15T05:50:17.685Z,96282.16
2023-02-15T05:52:44.222Z,96276.16
2023-02-15T05:55:10.785Z,96279.59
2023-02-15T05:57:37.260Z,96288.13
2023-02-15T06:00:05.276Z,96286.84
2023-02-15T06:02:38.716Z,96288.44
2023-02-15T06:05:06.484Z,96296.88
2023-02-15T06:07:33.095Z,96291.75
2023-02-15T06:09:59.702Z,96290.91
2023-02-15T06:12:26.252Z,96296.00
2023-02-15T06:14:52.752Z,96301.34
2023-02-15T06:17:19.355Z,96301.06
2023-02-15T06:19:45.878Z,96300.47
2023-02-15T06:22:12.555Z,96301.94
2023-02-15T06:24:39.056Z,96302.50
2023-02-15T06:27:05.537Z,96304.28
2023-02-15T06:29:32.148Z,96302.41
2023-02-15T06:31:58.730Z,96300.69
2023-02-15T06:34:25.263Z,96310.25
2023-02-15T06:36:54.605Z,96308.50
2023-02-15T06:39:21.466Z,96312.19
2023-02-15T06:41:48.393Z,96319.72
2023-02-15T06:44:15.206Z,96324.47
2023-02-15T06:46:41.781Z,96321.94
2023-02-15T06:49:08.312Z,96322.19
2023-02-15T06:51:35.049Z,96330.59
2023-02-15T06:54:01.648Z,96327.19
2023-02-15T06:56:28.436Z,96322.44
2023-02-15T06:58:54.914Z,96331.44
2023-02-15T07:01:21.420Z,96326.63
2023-02-15T07:03:47.900Z,96322.94
2023-02-15T07:06:15.105Z,96318.06
2023-02-15T07:08:44.777Z,96323.06
2023-02-15T07:11:11.607Z,96315.50
2023-02-15T07:13:38.184Z,96332.69
2023-02-15T07:16:05.046Z,96323.84
2023-02-15T07:18:31.720Z,96313.25
2023-02-15T07:20:58.231Z,96313.28
2023-02-15T07:23:24.745Z,96315.63
2023-02-15T07:25:58.050Z,96316.66
2023-02-15T07:28:24.526Z,96307.06
2023-02-15T07:30:51.657Z,96302.84
2023-02-15T07:33:18.248Z,96306.06
2023-02-15T07:35:49.186Z,96299.28
2023-02-15T07:38:16.018Z,96301.66
2023-02-15T07:40:43.449Z,96305.84
2023-02-15T07:43:10.100Z,96302.88
2023-02-15T07:45:36.698Z,96294.66
2023-02-15T07:48:04.142Z,96314.63
2023-02-15T07:50:30.637Z,96305.06
2023-02-15T07:52:57.454Z,96307.44
2023-02-15T07:55:24.026Z,96309.81
2023-02-15T07:57:51.444Z,96294.13
2023-02-15T08:00:20.179Z,96297.44
2023-02-15T08:02:50.503Z,96295.31
2023-02-15T08:05:16.980Z,96292.34
2023-02-15T08:07:43.574Z,96289.88
2023-02-15T08:10:10.285Z,96292.66
2023-02-15T08:12:36.784Z,96284.59
2023-02-15T08:15:03.339Z,96293.31
2023-02-15T08:17:30.082Z,96287.84
2023-02-15T08:19:56.556Z,96289.13
2023-02-15T08:22:25.518Z,96285.97
2023-02-15T08:24:52.599Z,96287.34
2023-02-15T08:27:19.221Z,96286.16
2023-02-15T08:29:45.742Z,96279.63
2023-02-15T08:32:13.363Z,96277.78
2023-02-15T08:34:44.234Z,96276.09
2023-02-15T08:37:10.778Z,96268.25
2023-02-15T08:39:37.413Z,96266.59
2023-02-15T08:42:03.993Z,96266.25
2023-02-15T08:44:30.720Z,96268.88
2023-02-15T08:46:57.350Z,96263.50
2023-02-15T08:49:24.707Z,96261.81
2023-02-15T08:51:51.392Z,96256.84
2023-02-15T08:54:20.113Z,96262.28
2023-02-15T08:56:47.209Z,96256.72
2023-02-15T08:59:17.225Z,96256.94
2023-02-15T09:01:43.867Z,96249.41
2023-02-15T09:04:10.794Z,96251.97
2023-02-15T09:06:41.866Z,96247.00
2023-02-15T09:09:08.986Z,96253.03
2023-02-15T09:11:41.488Z,96254.69
2023-02-15T09:14:12.535Z,96249.56
2023-02-15T09:16:39.450Z,96249.63
2023-02-15T09:19:06.938Z,96249.16
2023-02-15T09:21:37.792Z,96249.47
2023-02-15T09:24:10.044Z,96248.09
2023-02-15T09:26:39.360Z,96242.25
2023-02-15T09:29:05.865Z,96232.22
2023-02-15T09:31:34.706Z,96252.06
2023-02-15T09:34:01.549Z,96247.47
2023-02-15T09:36:33.878Z,96245.94
2023-02-15T09:39:09.476Z,96236.69
2023-02-15T09:41:41.904Z,96243.56
2023-02-15T09:44:28.944Z,96240.66
2023-02-15T09:47:26.442Z,96243.50
2023-02-15T09:50:14.850Z,96239.50
2023-02-15T09:53:03.651Z,96240.44
2023-02-15T09:55:48.297Z,96238.75
2023-02-15T09:58:23.589Z,96231.19
2023-02-15T10:01:06.085Z,96250.34
2023-02-15T10:03:48.874Z,96242.59
2023-02-15T10:06:23.282Z,96241.28
2023-02-15T10:09:03.419Z,96238.13
2023-02-15T10:12:02.509Z,96228.97
2023-02-15T10:14:45.318Z,96231.94
2023-02-15T10:17:16.033Z,96239.13
2023-02-15T10:20:01.594Z,96237.94
2023-02-15T10:22:51.370Z,96240.06
2023-02-15T10:25:24.940Z,96227.31
2023-02-15T10:27:51.642Z,96233.22
2023-02-15T10:30:32.942Z,96236.63
2023-02-15T10:33:14.774Z,96227.16
2023-02-15T10:36:07.781Z,96232.00
2023-02-15T10:38:49.726Z,96220.44
2023-02-15T10:41:28.886Z,96224.53
2023-02-15T10:44:05.407Z,96224.53
2023-02-15T10:46:50.921Z,96225.09
2023-02-15T10:49:22.745Z,96216.31
2023-02-15T10:52:00.112Z,96223.06
2023-02-15T10:54:41.952Z,96222.31
2023-02-15T10:57:25.780Z,96216.34
2023-02-15T11:00:17.169Z,96218.06
2023-02-15T11:02:43.906Z,96215.25
2023-02-15T11:05:27.385Z,96221.09
2023-02-15T11:07:55.622Z,96203.38
2023-02-15T11:10:42.606Z,96204.72
2023-02-15T11:13:12.385Z,96207.97
2023-02-15T11:15:44.942Z,96201.41
2023-02-15T11:18:17.082Z,96192.88
2023-02-15T11:20:52.823Z,96185.66
2023-02-15T11:23:19.364Z,96186.41
2023-02-15T11:25:53.426Z,96181.63
2023-02-15T11:28:26.622Z,96182.72
2023-02-15T11:30:56.977Z,96183.97
2023-02-15T11:33:25.366Z,96174.91
2023-02-15T11:35:57.016Z,96173.66
2023-02-15T11:38:25.887Z,96170.00
2023-02-15T11:40:58.434Z,96164.88
2023-02-15T11:43:43.931Z,96164.41
2023-02-15T11:46:12.989Z,96168.88
2023-02-15T11:48:40.771Z,96167.22
2023-02-15T11:51:13.523Z,96157.94
2023-02-15T11:53:41.525Z,96147.53
2023-02-15T11:56:15.377Z,96152.63
2023-02-15T11:58:56.275Z,96155.38
2023-02-15T12:01:25.842Z,96151.34
2023-02-15T12:03:58.776Z,96143.06
2023-02-15T12:06:28.610Z,96147.78
2023-02-15T12:09:18.474Z,96145.50
2023-02-15T12:11:45.130Z,96145.44
2023-02-15T12:14:13.272Z,96133.28
2023-02-15T12:16:54.977Z,96134.91
2023-02-15T12:19:41.169Z,96142.03
2023-02-15T12:22:28.997Z,96131.38
2023-02-15T12:24:57.906Z,96139.13
2023-02-15T12:27:31.885Z,96126.03
2023-02-15T12:30:21.079Z,96126.84
2023-02-15T12:32:53.521Z,96129.78
2023-02-15T12:35:29.087Z,96126.38
2023-02-15T12:38:01.786Z,96129.88
2023-02-15T12:40:33.245Z,96128.25
2023-02-15T12:43:00.115Z,96124.91
2023-02-15T12:45:31.812Z,96123.25
2023-02-15T12:48:13.363Z,96121.91
2023-02-15T12:50:40.734Z,96119.25
2023-02-15T12:53:31.298Z,96118.34
2023-02-15T12:56:03.414Z,96121.56
2023-02-15T12:58:34.463Z,96115.00
2023-02-15T13:01:09.970Z,96111.19
2023-02-15T13:03:39.418Z,96108.97
2023-02-15T13:06:08.544Z,96106.81
2023-02-15T13:08:45.781Z,96110.72
2023-02-15T13:11:13.096Z,96112.97
2023-02-15T13:13:51.745Z,96114.63
2023-02-15T13:16:22.573Z,96116.69
2023-02-15T13:18:51.674Z,96116.03
2023-02-15T13:21:33.268Z,96104.88
2023-02-15T13:24:04.126Z,96097.94
2023-02-15T13:26:32.459Z,96100.00
2023-02-15T13:29:26.454Z,96097.13
2023-02-15T13:31:54.888Z,96092.06
2023-02-15T13:34:25.404Z,96084.94
2023-02-15T13:36:57.995Z,96088.81
2023-02-15T13:39:44.103Z,96088.97
2023-02-15T13:42:13.657Z,96088.56
2023-02-15T13:45:28.181Z,96082.03
2023-02-15T13:48:00.532Z,96081.25
2023-02-15T13:50:51.726Z,96077.16
2023-02-15T13:53:48.066Z,96073.84
2023-02-15T13:56:22.668Z,96071.00
2023-02-15T13:59:21.364Z,96065.72
2023-02-15T14:01:54.246Z,96056.13
2023-02-15T14:04:23.878Z,96063.69
2023-02-15T14:07:09.327Z,96062.03
2023-02-15T14:09:54.840Z,96064.41
2023-02-15T14:12:47.736Z,96065.59
2023-02-15T14:15:14.135Z,96068.16
2023-02-15T14:17:53.714Z,96058.50
2023-02-15T14:20:48.477Z,96058.63
2023-02-15T14:23:43.358Z,96060.28
2023-02-15T14:26:43.611Z,96046.81
2023-02-15T14:29:19.075Z,96054.47
2023-02-15T14:31:49.965Z,96053.19
2023-02-15T14:34:22.364Z,96049.53
2023-02-15T14:36:51.050Z,96047.69
2023-02-15T14:39:17.584Z,96047.03
2023-02-15T14:41:45.611Z,96048.31
2023-02-15T14:44:47.634Z,96059.34
2023-02-15T14:47:23.020Z,96057.19
2023-02-15T14:49:49.497Z,96058.84
2023-02-15T14:52:15.979Z,96060.72
2023-02-15T14:54:42.400Z,96069.66
2023-02-15T14:57:08.813Z,96062.94
2023-02-15T14:59:40.939Z,96074.22
2023-02-15T15:02:07.374Z,96069.94
2023-02-15T15:04:41.378Z,96071.41
2023-02-15T15:07:34.209Z,96071.94
2023-02-15T15:10:15.921Z,96071.41
2023-02-15T15:12:47.154Z,96056.56
2023-02-15T15:15:29.021Z,96064.50
2023-02-15T15:17:57.400Z,96060.00
2023-02-15T15:20:26.988Z,96059.13
2023-02-15T15:23:15.447Z,96068.97
2023-02-15T15:26:15.655Z,96057.75
2023-02-15T15:28:42.037Z,96071.44
2023-02-15T15:31:17.620Z,96069.38
2023-02-15T15:34:05.761Z,96069.41
2023-02-15T15:36:47.352Z,96070.19
2023-02-15T15:39:27.628Z,96060.41
2023-02-15T15:41:53.962Z,96069.81
2023-02-15T15:44:58.020Z,96066.91
2023-02-15T15:47:38.059Z,96064.69
2023-02-15T15:50:13.989Z,96069.97
2023-02-15T15:52:43.675Z,96072.47
2023-02-15T15:55:17.162Z,96067.97
2023-02-15T15:57:45.630Z,96075.72
2023-02-15T16:00:43.354Z,96081.25
2023-02-15T16:03:26.388Z,96087.97
2023-02-15T16:05:53.338Z,96083.50
2023-02-15T16:08:46.111Z,96083.28
2023-02-15T16:11:20.363Z,96084.31
2023-02-15T16:13:49.583Z,96085.31
2023-02-15T16:16:22.513Z,96086.56
2023-02-15T16:18:49.403Z,96097.94
2023-02-15T16:21:27.425Z,96095.50
2023-02-15T16:24:00.850Z,96093.88
2023-02-15T16:26:50.442Z,96103.28
2023-02-15T16:29:19.397Z,96099.19
2023-02-15T16:32:07.065Z,96102.25
2023-02-15T16:34:33.848Z,96088.53
2023-02-15T16:37:21.243Z,96101.50
2023-02-15T16:39:47.898Z,96096.53
2023-02-15T16:42:14.934Z,96104.75
2023-02-15T16:44:41.522Z,96099.84
2023-02-15T16:47:17.946Z,96096.97
2023-02-15T16:49:48.042Z,96107.19
2023-02-15T16:52:20.342Z,96098.66
2023-02-15T16:54:47.011Z,96108.69
2023-02-15T16:57:22.155Z,96107.41
2023-02-15T16:59:56.555Z,96109.81
2023-02-15T17:02:53.163Z,96113.06
2023-02-15T17:05:18.754Z,96120.78
2023-02-15T17:08:03.518Z,96123.50
2023-02-15T17:10:31.786Z,96128.19
2023-02-15T17:13:03.006Z,96118.44
2023-02-15T17:15:34.258Z,96126.22
2023-02-15T17:18:10.154Z,96132.47
2023-02-15T17:20:39.108Z,96130.72
2023-02-15T17:23:06.685Z,96130.66
2023-02-15T17:25:38.897Z,96133.22
2023-02-15T17:28:06.493Z,96142.63
2023-02-15T17:30:35.010Z,96130.34
2023-02-15T17:33:03.589Z,96142.16
2023-02-15T17:35:33.668Z,96135.75
2023-02-15T17:38:21.276Z,96147.25
2023-02-15T17:40:48.159Z,96156.09
2023-02-15T17:43:14.648Z,96142.22
2023-02-15T17:45:59.869Z,96152.97
2023-02-15T17:48:39.181Z,96143.22
2023-02-15T17:51:08.219Z,96157.47
2023-02-15T17:53:35.052Z,96159.69
2023-02-15T17:56:01.678Z,96156.38
2023-02-15T17:58:28.218Z,96156.88
2023-02-15T18:01:01.099Z,96153.84
2023-02-15T18:03:39.306Z,96160.66
2023-02-15T18:06:06.337Z,96147.34
2023-02-15T18:08:32.824Z,96161.88
2023-02-15T18:11:00.303Z,96152.81
2023-02-15T18:13:26.901Z,96165.56
2023-02-15T18:15:53.451Z,96163.41
2023-02-15T18:18:20.745Z,96164.13
2023-02-15T18:20:47.307Z,96155.88
2023-02-15T18:23:19.662Z,96153.22
2023-02-15T18:25:46.374Z,96158.19
2023-02-15T18:28:12.939Z,96157.38
2023-02-15T18:30:40.513Z,96152.41
2023-02-15T18:33:22.373Z,96162.91
2023-02-15T18:35:51.786Z,96155.13
2023-02-15T18:38:18.452Z,96160.47
2023-02-15T18:40:44.911Z,96160.63
2023-02-15T18:43:13.140Z,96161.28
2023-02-15T18:45:39.774Z,96171.69
2023-02-15T18:48:06.374Z,96165.75
2023-02-15T18:50:35.781Z,96172.84
2023-02-15T18:53:03.922Z,96163.72
2023-02-15T18:55:30.582Z,96174.16
2023-02-15T18:57:57.444Z,96171.38
2023-02-15T19:00:26.542Z,96172.06
2023-02-15T19:02:53.038Z,96168.97
2023-02-15T19:05:19.554Z,96169.19
2023-02-15T19:07:46.801Z,96168.03
2023-02-15T19:10:16.507Z,96165.63
2023-02-15T19:12:43.590Z,96166.44
2023-02-15T19:15:30.684Z,96164.75
2023-02-15T19:17:57.311Z,96170.22
2023-02-15T19:20:36.097Z,96163.94
2023-02-15T19:23:03.267Z,96172.31
2023-02-15T19:25:32.154Z,96176.13
2023-02-15T19:27:59.030Z,96173.59
2023-02-15T19:30:29.470Z,96165.13
2023-02-15T19:32:57.632Z,96166.63
2023-02-15T19:35:27.136Z,96172.34
2023-02-15T19:37:55.717Z,96168.72
2023-02-15T19:40:28.198Z,96167.41
2023-02-15T19:42:54.784Z,96164.03
2023-02-15T19:45:26.946Z,96165.59
2023-02-15T19:47:56.384Z,96173.94
2023-02-15T19:50:28.335Z,96174.22
2023-02-15T19:52:55.141Z,96168.66
2023-02-15T19:55:32.084Z,96170.28
2023-02-15T19:57:59.555Z,96172.78
2023-02-15T20:00:41.392Z,96170.94
2023-02-15T20:03:07.939Z,96170.03
2023-02-15T20:05:35.180Z,96174.75
2023-02-15T20:08:01.898Z,96171.22
2023-02-15T20:10:30.590Z,96172.59
2023-02-15T20:12:57.742Z,96170.69
2023-02-15T20:15:32.598Z,96170.03
2023-02-15T20:18:00.723Z,96169.66
2023-02-15T20:20:31.950Z,96169.03
2023-02-15T20:22:58.512Z,96162.50
2023-02-15T20:25:27.142Z,96162.03
2023-02-15T20:27:53.774Z,96164.63
2023-02-15T20:30:24.808Z,96154.50
2023-02-15T20:32:51.363Z,96161.22
2023-02-15T20:35:23.022Z,96163.31
2023-02-15T20:37:54.566Z,96167.03
2023-02-15T20:40:26.734Z,96167.94
2023-02-15T20:42:53.618Z,96167.94
2023-02-15T20:45:25.156Z,96170.41
2023-02-15T20:47:52.722Z,96165.59
2023-02-15T20:50:28.588Z,96172.22
2023-02-15T20:52:59.854Z,96168.47
2023-02-15T20:55:29.150Z,96155.13
2023-02-15T20:57:56.220Z,96164.72
2023-02-15T21:00:26.134Z,96165.06
2023-02-15T21:02:57.965Z,96165.53
2023-02-15T21:05:29.901Z,96170.72
2023-02-15T21:07:57.730Z,96163.63
2023-02-15T21:10:27.207Z,96170.81
2023-02-15T21:12:53.934Z,96163.81
2023-02-15T21:15:38.625Z,96164.34
2023-02-15T21:18:32.677Z,96159.47
2023-02-15T21:21:02.454Z,96166.75
2023-02-15T21:23:34.133Z,96165.38
2023-02-15T21:26:00.872Z,96163.06
2023-02-15T21:28:29.032Z,96157.00
2023-02-15T21:30:56.841Z,96148.16
2023-02-15T21:33:24.364Z,96163.00
2023-02-15T21:35:55.011Z,96157.38
2023-02-15T21:38:23.344Z,96167.81
2023-02-15T21:40:50.067Z,96169.06
2023-02-15T21:43:24.207Z,96165.19
2023-02-15T21:45:50.708Z,96164.19
2023-02-15T21:48:17.415Z,96169.19
2023-02-15T21:50:44.125Z,96162.38
2023-02-15T21:53:13.603Z,96171.28
2023-02-15T21:55:40.263Z,96163.97
2023-02-15T21:58:06.738Z,96163.06
2023-02-15T22:00:33.296Z,96173.63
2023-02-15T22:03:00.187Z,96168.66
2023-02-15T22:05:32.571Z,96167.09
2023-02-15T22:08:00.080Z,96169.66
2023-02-15T22:10:29.828Z,96179.16
2023-02-15T22:12:56.407Z,96177.84
2023-02-15T22:15:24.957Z,96180.06
2023-02-15T22:17:51.950Z,96177.59
2023-02-15T22:20:20.869Z,96179.69
2023-02-15T22:22:47.908Z,96173.28
2023-02-15T22:25:15.772Z,96180.53
2023-02-15T22:27:42.881Z,96180.38
2023-02-15T22:30:19.115Z,96174.56
2023-02-15T22:32:45.731Z,96170.50
2023-02-15T22:35:17.669Z,96179.84
2023-02-15T22:37:44.187Z,96171.19
2023-02-15T22:40:14.771Z,96180.78
2023-02-15T22:42:42.707Z,96182.91
2023-02-15T22:45:18.091Z,96182.59
2023-02-15T22:47:45.359Z,96175.47
2023-02-15T22:50:19.499Z,96174.88
2023-02-15T22:52:46.161Z,96170.75
2023-02-15T22:55:17.318Z,96177.81
2023-02-15T22:57:45.364Z,96168.50
2023-02-15T23:00:17.577Z,96169.94
2023-02-15T23:02:44.674Z,96175.69
2023-02-15T23:05:19.396Z,96167.38
2023-02-15T23:07:46.819Z,96163.88
2023-02-15T23:10:13.921Z,96164.81
2023-02-15T23:12:40.416Z,96175.03
2023-02-15T23:15:11.274Z,96178.25
2023-02-15T23:17:37.764Z,96180.56
2023-02-15T23:20:04.607Z,96172.53
2023-02-15T23:22:31.111Z,96172.72
2023-02-15T23:24:57.664Z,96173.03
2023-02-15T23:27:24.307Z,96182.53
2023-02-15T23:29:51.094Z,96175.31
2023-02-15T23:32:18.168Z,96183.50
2023-02-15T23:34:44.745Z,96180.03
2023-02-15T23:37:12.193Z,96182.00
2023-02-15T23:39:38.904Z,96186.84
2023-02-15T23:42:09.031Z,96195.81
2023-02-15T23:44:35.874Z,96188.66
2023-02-15T23:47:02.481Z,96193.41
2023-02-15T23:49:28.971Z,96198.31
2023-02-15T23:51:57.272Z,96193.53
2023-02-15T23:54:25.510Z,96185.91
2023-02-15T23:57:00.747Z,96191.97
2023-02-15T23:59:31.089Z,96190.13
